createdAt,value
2023-01-11T00:00:34.333Z,23.72
2023-01-11T00:02:38.932Z,23.69
2023-01-11T00:04:43.601Z,23.68
2023-01-11T00:06:48.283Z,23.67
2023-01-11T00:08:53.006Z,23.66
2023-01-11T00:10:57.449Z,23.66
2023-01-11T00:13:02.001Z,23.65
2023-01-11T00:15:06.497Z,23.63
2023-01-11T00:17:10.970Z,23.61
2023-01-11T00:19:15.407Z,23.58
2023-01-11T00:21:19.864Z,23.55
2023-01-11T00:23:24.342Z,23.55
2023-01-11T00:25:28.936Z,23.53
2023-01-11T00:27:33.569Z,23.52
2023-01-11T00:29:38.057Z,23.5
2023-01-11T00:31:42.470Z,23.49
2023-01-11T00:33:47.214Z,23.49
2023-01-11T00:35:51.731Z,23.49
2023-01-11T00:37:56.198Z,23.48
2023-01-11T00:40:00.622Z,23.45
2023-01-11T00:42:05.079Z,23.44
2023-01-11T00:44:09.527Z,23.44
2023-01-11T00:46:14.070Z,23.42
2023-01-11T00:48:18.710Z,23.42
2023-01-11T00:50:23.210Z,23.41
2023-01-11T00:52:27.608Z,23.41
2023-01-11T00:54:32.040Z,23.41
2023-01-11T00:56:36.489Z,23.39
2023-01-11T00:58:40.881Z,23.37
2023-01-11T01:00:45.359Z,23.36
2023-01-11T01:02:49.948Z,23.35
2023-01-11T01:04:54.639Z,23.34
2023-01-11T01:06:59.097Z,23.33
2023-01-11T01:09:03.639Z,23.3
2023-01-11T01:11:08.054Z,23.29
2023-01-11T01:13:12.509Z,23.27
2023-01-11T01:15:16.981Z,23.26
2023-01-11T01:17:21.409Z,23.23
2023-01-11T01:19:25.867Z,23.22
2023-01-11T01:21:30.410Z,23.22
2023-01-11T01:23:34.785Z,23.2
2023-01-11T01:25:39.262Z,23.17
2023-01-11T01:27:43.677Z,23.16
2023-01-11T01:29:48.120Z,23.15
2023-01-11T01:31:52.551Z,23.13
2023-01-11T01:33:57.050Z,23.14
2023-01-11T01:36:01.619Z,23.12
2023-01-11T01:38:06.058Z,23.1
2023-01-11T01:40:10.491Z,23.1
2023-01-11T01:42:14.982Z,23.07
2023-01-11T01:44:19.416Z,23.04
2023-01-11T01:46:23.918Z,23.04
2023-01-11T01:48:28.549Z,23.02
2023-01-11T01:50:32.973Z,23.01
2023-01-11T01:52:37.636Z,23.01
2023-01-11T01:54:42.046Z,22.98
2023-01-11T01:56:46.456Z,22.96
2023-01-11T01:58:50.916Z,22.94
2023-01-11T02:00:55.467Z,22.93
2023-01-11T02:02:59.962Z,22.91
2023-01-11T02:05:04.679Z,22.91
2023-01-11T02:07:09.180Z,22.9
2023-01-11T02:09:13.627Z,22.89
2023-01-11T02:11:18.023Z,22.87
2023-01-11T02:13:22.463Z,22.86
2023-01-11T02:15:26.871Z,22.83
2023-01-11T02:17:31.383Z,22.82
2023-01-11T02:19:35.834Z,22.83
2023-01-11T02:21:40.213Z,22.81
2023-01-11T02:23:44.653Z,22.78
2023-01-11T02:25:49.099Z,22.79
2023-01-11T02:27:53.512Z,22.79
2023-01-11T02:29:57.938Z,22.8
2023-01-11T02:32:02.315Z,22.78
2023-01-11T02:34:06.785Z,22.78
2023-01-11T02:36:11.203Z,22.76
2023-01-11T02:38:15.639Z,22.71
2023-01-11T02:40:20.072Z,22.73
2023-01-11T02:42:24.501Z,22.73
2023-01-11T02:44:28.932Z,22.7
2023-01-11T02:46:33.455Z,22.71
2023-01-11T02:48:38.073Z,22.71
2023-01-11T02:50:42.490Z,22.69
2023-01-11T02:52:46.911Z,22.67
2023-01-11T02:54:51.356Z,22.67
2023-01-11T02:56:55.902Z,22.68
2023-01-11T02:59:00.314Z,22.65
2023-01-11T03:01:04.790Z,22.64
2023-01-11T03:03:09.315Z,22.65
2023-01-11T03:05:14.040Z,22.64
2023-01-11T03:07:18.493Z,22.65
2023-01-11T03:09:22.922Z,22.63
2023-01-11T03:11:27.472Z,22.6
2023-01-11T03:13:32.013Z,22.57
2023-01-11T03:15:36.465Z,22.57
2023-01-11T03:17:41.008Z,22.55
2023-01-11T03:19:45.480Z,22.53
2023-01-11T03:21:49.937Z,22.51
2023-01-11T03:23:54.750Z,22.5
2023-01-11T03:25:59.309Z,22.52
2023-01-11T03:28:03.760Z,22.48
2023-01-11T03:30:08.332Z,22.47
2023-01-11T03:32:12.772Z,22.46
2023-01-11T03:34:17.216Z,22.46
2023-01-11T03:36:21.627Z,22.43
2023-01-11T03:38:26.037Z,22.42
2023-01-11T03:40:30.490Z,22.42
2023-01-11T03:42:34.863Z,22.43
2023-01-11T03:44:39.340Z,22.43
2023-01-11T03:46:43.784Z,22.42
2023-01-11T03:48:48.496Z,22.4
2023-01-11T03:50:52.878Z,22.39
2023-01-11T03:52:57.321Z,22.37
2023-01-11T03:55:01.726Z,22.36
2023-01-11T03:57:06.248Z,22.33
2023-01-11T03:59:10.823Z,22.32
2023-01-11T04:01:15.258Z,22.32
2023-01-11T04:03:19.959Z,22.3
2023-01-11T04:05:24.401Z,22.28
2023-01-11T04:07:28.820Z,22.3
2023-01-11T04:09:33.305Z,22.28
2023-01-11T04:11:40.655Z,22.24
2023-01-11T04:14:21.727Z,22.2
2023-01-11T04:16:26.194Z,22.2
2023-01-11T04:18:30.714Z,22.2
2023-01-11T04:20:35.139Z,22.2
2023-01-11T04:22:39.583Z,22.18
2023-01-11T04:24:44.110Z,22.18
2023-01-11T04:26:48.613Z,22.16
2023-01-11T04:28:54.351Z,22.15
2023-01-11T04:30:58.963Z,22.13
2023-01-11T04:33:03.413Z,22.13
2023-01-11T04:35:07.922Z,22.12
2023-01-11T04:37:12.485Z,22.1
2023-01-11T04:39:16.901Z,22.1
2023-01-11T04:41:23.437Z,22.1
2023-01-11T04:43:28.199Z,22.1
2023-01-11T04:45:32.715Z,22.1
2023-01-11T04:47:37.358Z,22.1
2023-01-11T04:49:41.788Z,22.08
2023-01-11T04:51:46.202Z,22.07
2023-01-11T04:53:50.723Z,22.07
2023-01-11T04:55:55.127Z,22.06
2023-01-11T04:57:59.577Z,22.04
2023-01-11T05:00:04.064Z,22.04
2023-01-11T05:02:08.465Z,22.03
2023-01-11T05:04:13.630Z,22.04
2023-01-11T05:06:18.321Z,22.03
2023-01-11T05:08:22.727Z,22.02
2023-01-11T05:10:27.152Z,22.01
2023-01-11T05:12:31.532Z,22.01
2023-01-11T05:14:35.928Z,22
2023-01-11T05:16:40.337Z,21.97
2023-01-11T05:18:44.985Z,21.96
2023-01-11T05:20:49.354Z,21.92
2023-01-11T05:22:53.705Z,21.86
2023-01-11T05:24:58.250Z,21.9
2023-01-11T05:27:02.649Z,21.96
2023-01-11T05:29:07.070Z,22
2023-01-11T05:31:11.462Z,22.07
2023-01-11T05:33:15.949Z,22.12
2023-01-11T05:35:20.351Z,22.18
2023-01-11T05:37:24.714Z,22.22
2023-01-11T05:39:29.151Z,22.27
2023-01-11T05:41:33.544Z,22.31
2023-01-11T05:43:37.920Z,22.35
2023-01-11T05:45:42.422Z,22.38
2023-01-11T05:47:46.923Z,22.41
2023-01-11T05:49:51.283Z,22.43
2023-01-11T05:51:55.662Z,22.45
2023-01-11T05:54:00.055Z,22.47
2023-01-11T05:56:04.424Z,22.51
2023-01-11T05:58:08.871Z,22.56
2023-01-11T06:00:13.276Z,22.65
2023-01-11T06:02:17.880Z,22.7
2023-01-11T06:04:22.818Z,22.77
2023-01-11T06:06:27.296Z,22.84
2023-01-11T06:08:31.914Z,22.87
2023-01-11T06:10:36.327Z,22.91
2023-01-11T06:12:40.743Z,22.96
2023-01-11T06:14:45.157Z,23
2023-01-11T06:16:49.614Z,23.03
2023-01-11T06:18:54.143Z,23.05
2023-01-11T06:20:58.527Z,23.07
2023-01-11T06:23:02.938Z,23.11
2023-01-11T06:25:07.346Z,23.12
2023-01-11T06:27:11.699Z,23.14
2023-01-11T06:29:16.183Z,23.15
2023-01-11T06:31:20.757Z,23.16
2023-01-11T06:33:25.368Z,23.19
2023-01-11T06:35:29.785Z,23.21
2023-01-11T06:37:34.153Z,23.23
2023-01-11T06:39:38.528Z,23.23
2023-01-11T06:41:42.937Z,23.26
2023-01-11T06:43:47.314Z,23.29
2023-01-11T06:45:51.807Z,23.32
2023-01-11T06:47:56.397Z,23.33
2023-01-11T06:50:00.807Z,23.35
2023-01-11T06:52:05.209Z,23.35
2023-01-11T06:54:09.999Z,23.36
2023-01-11T06:56:14.531Z,23.37
2023-01-11T06:58:18.935Z,23.36
2023-01-11T07:00:23.485Z,23.38
2023-01-11T07:02:28.163Z,23.41
2023-01-11T07:04:32.534Z,23.44
2023-01-11T07:06:37.053Z,23.47
2023-01-11T07:08:41.531Z,23.48
2023-01-11T07:10:45.903Z,23.49
2023-01-11T07:12:50.320Z,23.5
2023-01-11T07:14:54.718Z,23.49
2023-01-11T07:16:59.136Z,23.47
2023-01-11T07:19:03.581Z,23.45
2023-01-11T07:21:07.970Z,23.43
2023-01-11T07:23:12.422Z,23.45
2023-01-11T07:25:16.872Z,23.45
2023-01-11T07:27:21.268Z,23.45
2023-01-11T07:29:25.660Z,23.46
2023-01-11T07:31:30.110Z,23.46
2023-01-11T07:33:34.780Z,23.46
2023-01-11T07:35:39.188Z,23.45
2023-01-11T07:37:43.565Z,23.45
2023-01-11T07:39:47.978Z,23.44
2023-01-11T07:41:52.356Z,23.43
2023-01-11T07:43:56.804Z,23.42
2023-01-11T07:46:01.283Z,23.43
2023-01-11T07:48:06.102Z,23.42
2023-01-11T07:50:10.482Z,23.43
2023-01-11T07:52:14.919Z,23.43
2023-01-11T07:54:19.443Z,23.41
2023-01-11T07:56:23.882Z,23.42
2023-01-11T07:58:28.262Z,23.42
2023-01-11T08:00:32.644Z,23.41
2023-01-11T08:02:37.049Z,23.43
2023-01-11T08:04:41.841Z,23.44
2023-01-11T08:06:46.283Z,23.42
2023-01-11T08:08:50.742Z,23.43
2023-01-11T08:10:55.144Z,23.43
2023-01-11T08:12:59.921Z,23.43
2023-01-11T08:15:04.430Z,23.44
2023-01-11T08:17:08.912Z,23.45
2023-01-11T08:19:13.286Z,23.45
2023-01-11T08:21:18.173Z,23.47
2023-01-11T08:23:22.581Z,23.45
2023-01-11T08:25:27.068Z,23.45
2023-01-11T08:27:31.449Z,23.45
2023-01-11T08:29:35.819Z,23.45
2023-01-11T08:31:40.210Z,23.45
2023-01-11T08:33:44.673Z,23.44
2023-01-11T08:35:49.143Z,23.46
2023-01-11T08:37:53.566Z,23.46
2023-01-11T08:39:58.046Z,23.46
2023-01-11T08:42:02.408Z,23.48
2023-01-11T08:44:06.809Z,23.48
2023-01-11T08:46:11.526Z,23.5
2023-01-11T08:48:16.147Z,23.5
2023-01-11T08:50:20.983Z,23.5
2023-01-11T08:52:26.499Z,23.52
2023-01-11T08:54:30.908Z,23.53
2023-01-11T08:56:35.406Z,23.54
2023-01-11T08:58:39.809Z,23.54
2023-01-11T09:00:44.212Z,23.53
2023-01-11T09:02:48.693Z,23.54
2023-01-11T09:04:53.243Z,23.54
2023-01-11T09:06:57.747Z,23.54
2023-01-11T09:09:02.120Z,23.54
2023-01-11T09:11:06.651Z,23.55
2023-01-11T09:13:11.094Z,23.56
2023-01-11T09:15:15.512Z,23.56
2023-01-11T09:17:19.917Z,23.56
2023-01-11T09:19:24.459Z,23.56
2023-01-11T09:21:28.913Z,23.55
2023-01-11T09:23:33.464Z,23.56
2023-01-11T09:25:37.881Z,23.56
2023-01-11T09:27:42.291Z,23.56
2023-01-11T09:29:46.661Z,23.55
2023-01-11T09:31:51.120Z,23.54
2023-01-11T09:33:55.547Z,23.57
2023-01-11T09:35:59.937Z,23.58
2023-01-11T09:38:04.313Z,23.6
2023-01-11T09:40:08.721Z,23.59
2023-01-11T09:42:16.415Z,23.59
2023-01-11T09:44:20.847Z,23.59
2023-01-11T09:46:25.257Z,23.6
2023-01-11T09:48:29.866Z,23.61
2023-01-11T09:50:34.299Z,23.6
2023-01-11T09:52:38.708Z,23.61
2023-01-11T09:54:43.426Z,23.59
2023-01-11T09:56:47.943Z,23.6
2023-01-11T09:58:52.358Z,23.6
2023-01-11T10:00:56.874Z,23.61
2023-01-11T10:03:04.592Z,23.62
2023-01-11T10:05:09.128Z,23.61
2023-01-11T10:07:13.708Z,23.62
2023-01-11T10:20:32.391Z,23.75
2023-01-11T10:22:37.032Z,23.77
2023-01-11T10:24:42.418Z,23.8
2023-01-11T10:26:47.045Z,23.81
2023-01-11T10:28:51.620Z,23.8
2023-01-11T10:30:56.002Z,23.81
2023-01-11T10:33:00.457Z,23.78
2023-01-11T10:35:04.867Z,23.79
2023-01-11T10:37:09.261Z,23.78
2023-01-11T10:39:13.662Z,23.77
2023-01-11T10:41:18.179Z,23.78
2023-01-11T10:43:22.659Z,23.78
2023-01-11T10:45:27.127Z,23.78
2023-01-11T10:47:31.743Z,23.76
2023-01-11T10:49:36.514Z,23.77
2023-01-11T10:51:41.161Z,23.78
2023-01-11T10:53:45.784Z,23.79
2023-01-11T10:55:50.188Z,23.79
2023-01-11T10:57:59.667Z,23.78
2023-01-11T11:00:07.467Z,23.78
2023-01-11T11:02:11.984Z,23.77
2023-01-11T11:04:16.575Z,23.77
2023-01-11T11:06:21.051Z,23.78
2023-01-11T11:08:25.491Z,23.78
2023-01-11T11:10:30.180Z,23.79
2023-01-11T11:12:34.651Z,23.78
2023-01-11T11:14:39.159Z,23.77
2023-01-11T11:16:44.463Z,23.78
2023-01-11T11:18:49.105Z,23.79
2023-01-11T11:20:53.808Z,23.79
2023-01-11T11:22:58.185Z,23.79
2023-01-11T11:25:02.687Z,23.79
2023-01-11T11:27:07.227Z,23.81
2023-01-11T11:29:11.925Z,23.8
2023-01-11T11:31:16.506Z,23.8
2023-01-11T11:33:21.016Z,23.81
2023-01-11T11:35:25.581Z,23.81
2023-01-11T11:37:30.006Z,23.81
2023-01-11T11:39:34.389Z,23.81
2023-01-11T11:41:38.831Z,23.82
2023-01-11T11:43:43.251Z,23.8
2023-01-11T11:45:47.793Z,23.83
2023-01-11T11:47:52.635Z,23.84
2023-01-11T11:49:57.077Z,23.84
2023-01-11T11:52:01.459Z,23.84
2023-01-11T11:54:05.842Z,23.87
2023-01-11T11:56:10.209Z,23.91
2023-01-11T11:58:14.762Z,23.93
2023-01-11T12:00:19.140Z,23.93
2023-01-11T12:02:23.655Z,23.95
2023-01-11T12:04:28.177Z,23.94
2023-01-11T12:06:32.505Z,23.96
2023-01-11T12:08:36.893Z,23.98
2023-01-11T12:10:41.226Z,23.98
2023-01-11T12:12:45.556Z,24.01
2023-01-11T12:14:49.900Z,24.01
2023-01-11T12:16:54.287Z,24.04
2023-01-11T12:18:58.887Z,24.05
2023-01-11T12:21:03.357Z,24.07
2023-01-11T12:23:07.677Z,24.1
2023-01-11T12:25:12.023Z,24.14
2023-01-11T12:27:16.496Z,24.18
2023-01-11T12:29:21.113Z,24.19
2023-01-11T12:31:25.464Z,24.2
2023-01-11T12:33:29.856Z,24.22
2023-01-11T12:35:34.233Z,24.2
2023-01-11T12:37:38.577Z,24.23
2023-01-11T12:39:42.934Z,24.23
2023-01-11T12:41:47.311Z,24.25
2023-01-11T12:43:51.703Z,24.25
2023-01-11T12:45:56.139Z,24.25
2023-01-11T12:48:00.723Z,24.24
2023-01-11T12:50:05.079Z,24.25
2023-01-11T12:52:09.538Z,24.25
2023-01-11T12:54:13.908Z,24.25
2023-01-11T12:56:18.365Z,24.24
2023-01-11T12:58:22.833Z,24.25
2023-01-11T13:00:27.175Z,24.24
2023-01-11T13:02:31.652Z,24.25
2023-01-11T13:04:36.188Z,24.24
2023-01-11T13:06:40.699Z,24.23
2023-01-11T13:08:45.038Z,24.22
2023-01-11T13:10:49.392Z,24.23
2023-01-11T13:12:53.749Z,24.22
2023-01-11T13:14:58.143Z,24.21
2023-01-11T13:17:02.572Z,24.2
2023-01-11T13:19:07.257Z,24.2
2023-01-11T13:21:11.671Z,24.21
2023-01-11T13:23:16.013Z,24.21
2023-01-11T13:25:20.372Z,24.19
2023-01-11T13:27:24.818Z,24.19
2023-01-11T13:29:29.418Z,24.17
2023-01-11T13:31:33.747Z,24.17
2023-01-11T13:33:38.094Z,24.18
2023-01-11T13:35:42.511Z,24.18
2023-01-11T13:37:46.858Z,24.18
2023-01-11T13:39:51.228Z,24.18
2023-01-11T13:41:55.525Z,24.16
2023-01-11T13:43:59.838Z,24.19
2023-01-11T13:46:04.290Z,24.19
2023-01-11T13:48:08.873Z,24.21
2023-01-11T13:50:13.218Z,24.2
2023-01-11T13:52:17.567Z,24.18
2023-01-11T13:54:21.915Z,24.16
2023-01-11T13:56:26.312Z,24.16
2023-01-11T13:58:30.641Z,24.15
2023-01-11T14:00:35.246Z,24.15
2023-01-11T14:02:39.680Z,24.15
2023-01-11T14:04:44.049Z,24.14
2023-01-11T14:06:48.381Z,24.14
2023-01-11T14:08:52.767Z,24.12
2023-01-11T14:10:57.234Z,24.11
2023-01-11T14:13:01.623Z,24.11
2023-01-11T14:15:06.042Z,24.12
2023-01-11T14:17:10.577Z,24.1
2023-01-11T14:19:14.940Z,24.09
2023-01-11T14:21:19.445Z,24.08
2023-01-11T14:23:23.794Z,24.09
2023-01-11T14:25:28.190Z,24.11
2023-01-11T14:27:32.545Z,24.12
2023-01-11T14:29:36.912Z,24.14
2023-01-11T14:31:41.358Z,24.17
2023-01-11T14:33:46.034Z,24.18
2023-01-11T14:35:50.388Z,24.2
2023-01-11T14:37:54.786Z,24.22
2023-01-11T14:39:59.131Z,24.24
2023-01-11T14:42:03.535Z,24.23
2023-01-11T14:44:07.950Z,24.24
2023-01-11T14:46:12.372Z,24.24
2023-01-11T14:48:16.972Z,24.27
2023-01-11T14:50:21.308Z,24.29
2023-01-11T14:52:38.804Z,24.31
2023-01-11T14:54:45.024Z,24.35
2023-01-11T14:56:49.557Z,24.37
2023-01-11T14:58:54.058Z,24.39
2023-01-11T15:00:58.473Z,24.4
2023-01-11T15:03:02.837Z,24.41
2023-01-11T15:05:07.303Z,24.39
2023-01-11T15:07:11.806Z,24.4
2023-01-11T15:09:16.139Z,24.38
2023-01-11T15:11:20.504Z,24.39
2023-01-11T15:13:24.913Z,24.41
2023-01-11T15:15:29.310Z,24.42
2023-01-11T15:17:33.693Z,24.43
2023-01-11T15:19:38.082Z,24.46
2023-01-11T15:21:42.525Z,24.48
2023-01-11T15:23:46.843Z,24.51
2023-01-11T15:25:51.223Z,24.52
2023-01-11T15:27:55.645Z,24.52
2023-01-11T15:30:00.183Z,24.52
2023-01-11T15:32:04.844Z,24.54
2023-01-11T15:34:09.152Z,24.56
2023-01-11T15:36:13.550Z,24.6
2023-01-11T15:38:17.849Z,24.6
2023-01-11T15:40:22.184Z,24.61
2023-01-11T15:42:26.490Z,24.63
2023-01-11T15:44:30.849Z,24.62
2023-01-11T15:46:35.302Z,24.63
2023-01-11T15:48:39.914Z,24.64
2023-01-11T15:50:44.286Z,24.61
2023-01-11T15:52:48.748Z,24.59
2023-01-11T15:54:53.230Z,24.57
2023-01-11T15:56:57.735Z,24.56
2023-01-11T15:59:02.097Z,24.56
2023-01-11T16:01:06.638Z,24.54
2023-01-11T16:03:11.551Z,24.54
2023-01-11T16:05:15.887Z,24.52
2023-01-11T16:07:20.250Z,24.52
2023-01-11T16:09:24.674Z,24.53
2023-01-11T16:11:29.180Z,24.5
2023-01-11T16:13:33.610Z,24.49
2023-01-11T16:15:38.089Z,24.48
2023-01-11T16:17:42.464Z,24.49
2023-01-11T16:19:46.870Z,24.49
2023-01-11T16:21:51.220Z,24.51
2023-01-11T16:23:55.637Z,24.51
2023-01-11T16:25:59.979Z,24.5
2023-01-11T16:28:04.446Z,24.49
2023-01-11T16:30:08.838Z,24.5
2023-01-11T16:32:13.256Z,24.5
2023-01-11T16:34:17.627Z,24.46
2023-01-11T16:36:22.018Z,24.48
2023-01-11T16:38:26.386Z,24.47
2023-01-11T16:40:30.786Z,24.48
2023-01-11T16:42:35.303Z,24.49
2023-01-11T16:44:39.872Z,24.46
2023-01-11T16:46:44.415Z,24.48
2023-01-11T16:48:48.973Z,24.47
2023-01-11T16:50:53.383Z,24.45
2023-01-11T16:52:57.759Z,24.46
2023-01-11T16:55:02.340Z,24.51
2023-01-11T16:57:06.954Z,24.52
2023-01-11T16:59:11.396Z,24.54
2023-01-11T17:01:15.860Z,24.56
2023-01-11T17:03:20.590Z,24.57
2023-01-11T17:05:24.966Z,24.62
2023-01-11T17:07:29.365Z,24.63
2023-01-11T17:09:34.040Z,24.64
2023-01-11T17:11:38.479Z,24.68
2023-01-11T17:13:42.820Z,24.66
2023-01-11T17:15:47.204Z,24.69
2023-01-11T17:17:51.578Z,24.68
2023-01-11T17:19:55.945Z,24.71
2023-01-11T17:22:00.655Z,24.71
2023-01-11T17:24:05.111Z,24.73
2023-01-11T17:26:14.619Z,24.75
2023-01-11T17:28:19.282Z,24.74
2023-01-11T17:30:23.735Z,24.78
2023-01-11T17:32:28.192Z,24.8
2023-01-11T17:34:32.608Z,24.81
2023-01-11T17:36:37.039Z,24.82
2023-01-11T17:38:41.435Z,24.82
2023-01-11T17:40:45.876Z,24.83
2023-01-11T17:42:50.278Z,24.82
2023-01-11T17:44:54.674Z,24.85
2023-01-11T17:46:59.051Z,24.85
2023-01-11T17:49:03.448Z,24.85
2023-01-11T17:51:07.826Z,24.84
2023-01-11T17:53:12.209Z,24.85
2023-01-11T17:55:16.600Z,24.86
2023-01-11T17:57:21.023Z,24.87
2023-01-11T17:59:25.381Z,24.9
2023-01-11T18:01:30.036Z,24.91
2023-01-11T18:03:34.627Z,24.91
2023-01-11T18:05:39.127Z,24.93
2023-01-11T18:07:43.514Z,24.93
2023-01-11T18:09:47.872Z,24.97
2023-01-11T18:11:52.241Z,24.98
2023-01-11T18:13:56.629Z,24.99
2023-01-11T18:16:01.116Z,24.99
2023-01-11T18:18:05.583Z,25
2023-01-11T18:20:09.944Z,25.01
2023-01-11T18:22:14.277Z,25.02
2023-01-11T18:24:18.980Z,25.03
2023-01-11T18:26:23.365Z,25.06
2023-01-11T18:28:27.718Z,25.07
2023-01-11T18:30:32.139Z,25.11
2023-01-11T18:32:36.646Z,25.12
2023-01-11T18:34:40.938Z,25.16
2023-01-11T18:36:45.323Z,25.18
2023-01-11T18:38:49.802Z,25.18
2023-01-11T18:40:54.223Z,25.19
2023-01-11T18:42:58.560Z,25.24
2023-01-11T18:45:02.918Z,25.28
2023-01-11T18:47:07.278Z,25.34
2023-01-11T18:49:11.606Z,25.42
2023-01-11T18:51:15.974Z,25.46
2023-01-11T18:53:20.910Z,25.48
2023-01-11T18:55:25.276Z,25.5
2023-01-11T18:57:29.709Z,25.52
2023-01-11T18:59:34.164Z,25.54
2023-01-11T19:01:51.571Z,25.54
2023-01-11T19:04:19.653Z,25.5
2023-01-11T19:06:24.034Z,25.49
2023-01-11T19:08:29.663Z,25.5
2023-01-11T19:10:35.206Z,25.49
2023-01-11T19:12:39.566Z,25.44
2023-01-11T19:14:43.958Z,25.41
2023-01-11T19:16:48.405Z,25.45
2023-01-11T19:18:52.768Z,25.44
2023-01-11T19:20:57.140Z,25.43
2023-01-11T19:23:01.477Z,25.42
2023-01-11T19:25:05.809Z,25.43
2023-01-11T19:27:10.275Z,25.45
2023-01-11T19:29:14.900Z,25.47
2023-01-11T19:31:19.317Z,25.47
2023-01-11T19:33:23.964Z,25.47
2023-01-11T19:35:28.309Z,25.47
2023-01-11T19:37:32.692Z,25.47
2023-01-11T19:39:37.101Z,25.46
2023-01-11T19:41:41.475Z,25.46
2023-01-11T19:43:45.836Z,25.46
2023-01-11T19:45:50.213Z,25.46
2023-01-11T19:47:54.759Z,25.47
2023-01-11T19:49:59.136Z,25.49
2023-01-11T19:52:03.493Z,25.49
2023-01-11T19:54:08.005Z,25.48
2023-01-11T19:56:12.390Z,25.5
2023-01-11T19:58:16.831Z,25.45
2023-01-11T20:00:21.199Z,25.34
2023-01-11T20:02:25.628Z,25.23
2023-01-11T20:04:30.171Z,25.17
2023-01-11T20:06:34.586Z,25.07
2023-01-11T20:08:39.002Z,24.96
2023-01-11T20:10:43.568Z,24.85
2023-01-11T20:12:47.908Z,24.75
2023-01-11T20:14:52.241Z,24.64
2023-01-11T20:16:58.706Z,24.55
2023-01-11T20:19:03.111Z,24.51
2023-01-11T20:21:07.469Z,24.52
2023-01-11T20:23:11.901Z,24.51
2023-01-11T20:25:16.304Z,24.49
2023-01-11T20:27:20.677Z,24.5
2023-01-11T20:29:25.034Z,24.51
2023-01-11T20:31:29.480Z,24.52
2023-01-11T20:33:34.064Z,24.51
2023-01-11T20:35:38.505Z,24.51
2023-01-11T20:37:42.862Z,24.46
2023-01-11T20:39:47.233Z,24.48
2023-01-11T20:41:51.612Z,24.46
2023-01-11T20:43:56.020Z,24.45
2023-01-11T20:46:00.461Z,24.44
2023-01-11T20:48:05.005Z,24.46
2023-01-11T20:50:09.472Z,24.48
2023-01-11T20:52:13.988Z,24.46
2023-01-11T20:54:18.479Z,24.45
2023-01-11T20:56:23.098Z,24.42
2023-01-11T20:58:27.578Z,24.4
2023-01-11T21:00:32.036Z,24.37
2023-01-11T21:02:36.492Z,24.35
2023-01-11T21:04:41.117Z,24.32
2023-01-11T21:06:45.619Z,24.28
2023-01-11T21:08:50.103Z,24.27
2023-01-11T21:10:54.597Z,24.24
2023-01-11T21:15:05.383Z,24.2
2023-01-11T21:17:09.896Z,24.21
2023-01-11T21:19:14.350Z,24.19
2023-01-11T21:21:18.926Z,24.18
2023-01-11T21:23:23.429Z,24.13
2023-01-11T21:25:27.853Z,24.1
2023-01-11T21:27:32.463Z,24.09
2023-01-11T21:29:36.956Z,24.07
2023-01-11T21:31:41.491Z,24.03
2023-01-11T21:33:46.262Z,24.03
2023-01-11T21:35:50.671Z,24.01
2023-01-11T21:37:55.092Z,24
2023-01-11T21:39:59.653Z,23.98
2023-01-11T21:42:04.081Z,23.96
2023-01-11T21:44:08.529Z,23.94
2023-01-11T21:46:13.074Z,23.92
2023-01-11T21:48:17.701Z,23.94
2023-01-11T21:50:22.138Z,23.93
2023-01-11T21:52:26.529Z,23.95
2023-01-11T21:54:30.970Z,23.96
2023-01-11T21:56:35.401Z,24
2023-01-11T21:58:39.829Z,23.97
2023-01-11T22:00:44.340Z,23.97
2023-01-11T22:02:48.932Z,23.96
2023-01-11T22:04:53.362Z,23.95
2023-01-11T22:06:58.566Z,23.95
2023-01-11T22:09:04.175Z,23.93
2023-01-11T22:11:08.594Z,23.93
2023-01-11T22:13:12.982Z,23.91
2023-01-11T22:15:17.384Z,23.9
2023-01-11T22:17:21.798Z,23.89
2023-01-11T22:19:26.166Z,23.9
2023-01-11T22:21:30.592Z,23.89
2023-01-11T22:23:34.968Z,23.89
2023-01-11T22:25:39.408Z,23.9
2023-01-11T22:27:43.832Z,23.89
2023-01-11T22:29:48.259Z,23.89
2023-01-11T22:31:52.764Z,23.91
2023-01-11T22:33:57.711Z,23.86
2023-01-11T22:36:02.093Z,23.88
2023-01-11T22:38:06.527Z,23.88
2023-01-11T22:40:10.991Z,23.88
2023-01-11T22:42:15.459Z,23.86
2023-01-11T22:44:19.887Z,23.91
2023-01-11T22:46:24.318Z,23.96
2023-01-11T22:48:28.769Z,24
2023-01-11T22:50:33.185Z,24.06
2023-01-11T22:52:37.668Z,24.09
2023-01-11T22:54:42.158Z,24.12
2023-01-11T22:56:46.590Z,24.17
2023-01-11T22:58:51.096Z,24.21
2023-01-11T23:00:55.551Z,24.24
2023-01-11T23:03:00.082Z,24.27
2023-01-11T23:05:04.826Z,24.3
2023-01-11T23:07:09.351Z,24.31
2023-01-11T23:09:15.754Z,24.33
2023-01-11T23:11:20.786Z,24.34
2023-01-11T23:13:25.251Z,24.36
2023-01-11T23:15:29.753Z,24.37
2023-01-11T23:17:34.175Z,24.39
2023-01-11T23:19:38.665Z,24.4
2023-01-11T23:21:43.258Z,24.43
2023-01-11T23:23:47.722Z,24.43
2023-01-11T23:25:52.156Z,24.44
2023-01-11T23:27:56.588Z,24.44
2023-01-11T23:30:01.117Z,24.45
2023-01-11T23:32:05.649Z,24.46
2023-01-11T23:34:10.276Z,24.46
2023-01-11T23:36:14.828Z,24.47
2023-01-11T23:38:19.244Z,24.48
2023-01-11T23:40:23.613Z,24.49
2023-01-11T23:42:28.077Z,24.49
2023-01-11T23:44:32.504Z,24.5
2023-01-11T23:46:37.019Z,24.51
2023-01-11T23:48:41.522Z,24.52
2023-01-11T23:50:45.932Z,24.53
2023-01-11T23:52:50.340Z,24.54
2023-01-11T23:54:54.769Z,24.55
2023-01-11T23:56:59.397Z,24.57
2023-01-11T23:59:03.987Z,24.57
